Beacon Hill, Washington
Current Conditions -  °F | °C
As of 2:53 PM on Thursday 23 Oct 2014 (Local Time) from KBFI Reporting Station
Broken Clouds Broken Clouds  
Wind Chill: 60°   Ceiling: 7500
Heat Index: 60°   Visibility: 10mi
Dew Point: 48°   Wind: 10mph
Humidity: 64%   Direction: 200°SSW
Pressure: 29.84"   Gusts: 17mph
Location:  47.5852°N, 122.3°W
Report Text: KBFI 232153Z 20009G15KT 10SM FEW020 SCT030 BKN075 16/09 A2984 RMK AO2 RAB27E39 SLP103 P0001 T01560089
Loading
Personal Weather Stations






























Interactive Weather Map
Tropical Storm Tracking
New forecast layout! Learn more

10-Day Weather Forecast

Advertisements
Track Severe Weather on mobile